Time;durP1;ratioP1;P1;durP2;ratioP2;P2;SDS_P1;SDS_P2;PMS_P1;PMS_P2;Temp;Humidity;BMP_temperature;BMP_pressure;BME280_temperature;BME280_humidity;BME280_pressure;Samples;Min_cycle;Max_cycle;Signal;HPM_P1;HPM_P2
2022/06/01 00:00:57;;;;;;;0.10;0.10;;;;;;;21.44;42.37;100962.00;5137056;27;20054;-33
2022/06/01 00:03:24;;;;;;;0.10;0.10;;;;;;;21.43;42.25;100963.16;5140402;27;20050;-34
2022/06/01 00:05:53;;;;;;;0.10;0.10;;;;;;;21.42;42.35;100964.28;5116381;27;20089;-32
2022/06/01 00:08:20;;;;;;;0.10;0.10;;;;;;;21.42;42.35;100964.28;5136212;27;20088;-32
2022/06/01 00:10:47;;;;;;;0.10;0.10;;;;;;;21.42;42.21;100959.56;5133209;27;20078;-32
2022/06/01 00:13:12;;;;;;;0.10;0.10;;;;;;;21.42;42.41;100967.03;5131898;27;20079;-32
2022/06/01 00:15:38;;;;;;;0.10;0.10;;;;;;;21.40;42.16;100959.00;5135320;27;20043;-32
2022/06/01 00:18:04;;;;;;;0.10;0.10;;;;;;;21.42;42.41;100958.72;5128507;27;20043;-33
2022/06/01 00:20:30;;;;;;;0.10;0.10;;;;;;;21.41;42.22;100963.41;5133327;27;20050;-34
2022/06/01 00:22:56;;;;;;;0.10;0.10;;;;;;;21.41;42.27;100957.06;5141015;27;20053;-32
2022/06/01 00:25:22;;;;;;;0.10;0.10;;;;;;;21.40;42.27;100950.69;5136460;27;20313;-32
2022/06/01 00:27:48;;;;;;;0.10;0.10;;;;;;;21.41;42.20;100957.06;5136140;27;20039;-33
2022/06/01 00:30:15;;;;;;;0.10;0.10;;;;;;;21.41;42.35;100954.28;5133136;27;20139;-32
2022/06/01 00:32:41;;;;;;;0.10;0.10;;;;;;;21.40;42.55;100959.00;5118919;27;20499;-32
2022/06/01 00:35:08;;;;;;;0.25;0.25;;;;;;;21.41;42.36;100952.34;5138714;27;20080;-35
2022/06/01 00:37:34;;;;;;;0.10;0.10;;;;;;;21.39;42.29;100957.38;5138034;27;20493;-32
2022/06/01 00:40:00;;;;;;;0.10;0.10;;;;;;;21.40;42.37;100958.19;5134479;27;20040;-35
2022/06/01 00:42:29;;;;;;;0.17;0.17;;;;;;;21.40;42.38;100955.41;5134099;27;20075;-32
2022/06/01 00:44:55;;;;;;;0.10;0.10;;;;;;;21.39;42.36;100960.13;5135714;27;20035;-32
2022/06/01 00:47:22;;;;;;;0.10;0.10;;;;;;;21.40;42.23;100960.94;5113173;27;20437;-34
2022/06/01 00:49:52;;;;;;;0.10;0.10;;;;;;;21.39;42.42;100956.53;5134303;27;20058;-32
2022/06/01 00:52:35;;;;;;;0.20;0.20;;;;;;;21.38;42.35;100961.25;5114313;27;20054;-32
2022/06/01 00:55:19;;;;;;;0.10;0.10;;;;;;;21.39;42.46;100970.41;5131131;27;20074;-34
2022/06/01 00:57:48;;;;;;;0.10;0.10;;;;;;;21.37;42.38;100965.13;5133650;27;20090;-33
2022/06/01 01:00:20;;;;;;;0.10;0.10;;;;;;;21.38;42.39;100963.22;5134162;27;20513;-34
2022/06/01 01:02:46;;;;;;;0.10;0.10;;;;;;;21.38;42.55;100969.56;5133533;27;20501;-33
2022/06/01 01:05:13;;;;;;;0.10;0.10;;;;;;;21.39;42.40;100964.84;5138325;27;20047;-34
2022/06/01 01:07:40;;;;;;;0.10;0.10;;;;;;;21.38;42.52;100966.81;5118545;27;20062;-33
2022/06/01 01:10:07;;;;;;;0.10;0.10;;;;;;;21.37;42.32;100970.66;5136073;27;20071;-33
2022/06/01 01:12:56;;;;;;;0.10;0.10;;;;;;;21.38;42.45;100982.59;5138470;27;20525;-33
2022/06/01 01:15:19;;;;;;;0.10;0.10;;;;;;;21.36;42.32;100969.03;5112759;27;20133;-33
2022/06/01 01:17:45;;;;;;;0.10;0.10;;;;;;;21.36;42.46;100966.25;5133046;27;20270;-32
2022/06/01 01:20:11;;;;;;;0.10;0.10;;;;;;;21.36;42.39;100957.94;5139870;27;20082;-33
2022/06/01 01:22:44;;;;;;;0.10;0.10;;;;;;;21.36;42.32;100952.41;5138474;27;20159;-33
2022/06/01 01:25:19;;;;;;;0.10;0.10;;;;;;;21.35;42.43;100950.75;5138438;27;20079;-33
2022/06/01 01:27:46;;;;;;;0.10;0.10;;;;;;;21.36;42.47;100954.34;5129642;27;20074;-34
2022/06/01 01:30:41;;;;;;;0.10;0.10;;;;;;;21.36;42.40;100955.16;5131930;27;20070;-33
2022/06/01 01:33:12;;;;;;;0.10;0.10;;;;;;;21.36;42.33;100954.34;5121985;27;21577;-33
2022/06/01 01:35:38;;;;;;;0.10;0.10;;;;;;;21.35;42.56;100953.53;5115003;27;20078;-33
2022/06/01 01:38:09;;;;;;;0.10;0.10;;;;;;;21.34;42.48;100951.88;5133592;27;20074;-33
2022/06/01 01:40:35;;;;;;;0.10;0.10;;;;;;;21.35;42.45;100942.44;5140693;27;20521;-36
2022/06/01 01:43:01;;;;;;;0.10;0.10;;;;;;;21.36;42.39;100946.03;5115213;27;20055;-35
2022/06/01 01:45:30;;;;;;;0.10;0.10;;;;;;;21.35;42.40;100938.84;5130509;27;20465;-37
2022/06/01 01:47:55;;;;;;;0.10;0.10;;;;;;;21.35;42.56;100938.84;5136036;27;20074;-34
2022/06/01 01:50:23;;;;;;;0.10;0.10;;;;;;;21.34;42.49;100940.81;5137556;27;20496;-34
2022/06/01 01:52:49;;;;;;;0.10;0.10;;;;;;;21.34;42.33;100934.44;5113005;27;20082;-33
2022/06/01 01:55:39;;;;;;;0.10;0.10;;;;;;;21.34;42.26;100938.03;5132373;27;20069;-33
2022/06/01 01:58:30;;;;;;;0.10;0.10;;;;;;;21.33;42.47;100939.16;5118735;27;20074;-34
2022/06/01 02:01:00;;;;;;;0.10;0.10;;;;;;;21.33;42.58;100932.78;5120022;27;20351;-35
2022/06/01 02:03:36;;;;;;;0.10;0.10;;;;;;;21.34;42.41;100934.44;5116113;27;20490;-34
2022/06/01 02:08:46;;;;;;;0.10;0.10;;;;;;;21.32;42.40;100937.50;5164439;27;20194;-33
2022/06/01 02:14:12;;;;;;;0.10;0.10;;;;;;;21.33;42.56;100935.53;5145110;27;20116;-31
2022/06/01 02:16:45;;;;;;;0.10;0.10;;;;;;;21.33;42.49;100933.63;5125997;27;20093;-31
2022/06/01 02:19:15;;;;;;;0.10;0.10;;;;;;;21.32;42.53;100937.50;5162606;27;20135;-32
2022/06/01 02:21:41;;;;;;;0.10;0.10;;;;;;;21.32;42.54;100945.81;5166287;27;20137;-30
2022/06/01 02:24:07;;;;;;;0.10;0.10;;;;;;;21.32;42.57;100948.56;5162030;27;20460;-30
2022/06/01 02:26:33;;;;;;;0.10;0.10;;;;;;;21.32;42.43;100940.25;5163038;27;20413;-31
2022/06/01 02:29:06;;;;;;;0.10;0.10;;;;;;;21.32;42.53;100951.34;5164088;27;20074;-34
2022/06/01 02:31:33;;;;;;;0.10;0.10;;;;;;;21.31;42.67;100952.44;5158880;27;20496;-32
2022/06/01 02:33:59;;;;;;;0.10;0.10;;;;;;;21.32;42.57;100956.88;5164651;27;20468;-31
2022/06/01 02:36:25;;;;;;;0.10;0.10;;;;;;;21.31;42.48;100963.50;5159657;27;20457;-30
2022/06/01 02:38:54;;;;;;;0.10;0.10;;;;;;;21.32;42.50;100958.81;5164825;27;20427;-32
2022/06/01 02:44:05;;;;;;;0.10;0.10;;;;;;;21.29;42.42;100961.06;5145362;27;20066;-30
2022/06/01 02:46:31;;;;;;;0.10;0.10;;;;;;;21.30;42.44;100961.88;5163623;27;20493;-33
2022/06/01 02:49:00;;;;;;;0.10;0.10;;;;;;;21.30;42.46;100954.38;5161172;27;20453;-32
2022/06/01 02:51:26;;;;;;;0.10;0.10;;;;;;;21.30;42.45;100961.88;5162083;27;20074;-30
2022/06/01 02:53:52;;;;;;;0.10;0.10;;;;;;;21.29;42.64;100965.78;5158082;27;20081;-32
2022/06/01 02:56:18;;;;;;;0.10;0.10;;;;;;;21.30;42.65;100964.63;5163027;27;20042;-31
2022/06/01 02:58:43;;;;;;;0.10;0.10;;;;;;;21.30;42.58;100970.19;5161906;27;20073;-30
2022/06/01 03:01:09;;;;;;;0.10;0.10;;;;;;;21.29;42.55;100977.66;5164915;27;20048;-31
2022/06/01 03:03:35;;;;;;;0.10;0.10;;;;;;;21.29;42.54;100966.59;5160421;27;20039;-32
2022/06/01 03:06:02;;;;;;;0.10;0.10;;;;;;;21.30;42.52;100967.41;5161966;27;20034;-32
2022/06/01 03:08:27;;;;;;;0.40;0.20;;;;;;;21.28;42.54;100976.00;5162438;27;20466;-30
2022/06/01 03:10:54;;;;;;;0.10;0.10;;;;;;;21.28;42.68;100973.22;5159842;27;20058;-30
2022/06/01 03:13:21;;;;;;;0.10;0.10;;;;;;;21.29;42.58;100979.63;5159601;27;20205;-30
2022/06/01 03:15:48;;;;;;;0.10;0.10;;;;;;;21.27;42.63;100979.91;5162085;27;20388;-29
2022/06/01 03:18:13;;;;;;;0.10;0.10;;;;;;;21.28;42.46;100978.78;5138654;27;20081;-30
2022/06/01 03:20:40;;;;;;;0.10;0.10;;;;;;;21.27;42.56;100984.59;5150588;27;20047;-30
2022/06/01 03:23:05;;;;;;;0.10;0.10;;;;;;;21.27;42.58;100988.19;5147936;27;20461;-31
2022/06/01 03:25:31;;;;;;;0.10;0.10;;;;;;;21.27;42.54;100990.16;5149701;27;20042;-32
2022/06/01 03:27:59;;;;;;;0.10;0.10;;;;;;;21.27;42.71;100995.69;5149435;27;20137;-33
2022/06/01 03:30:25;;;;;;;0.10;0.10;;;;;;;21.27;42.71;100995.69;5150205;27;20083;-31
2022/06/01 03:32:51;;;;;;;0.17;0.17;;;;;;;21.27;42.68;100985.44;5150157;27;20079;-30
2022/06/01 03:35:19;;;;;;;0.10;0.10;;;;;;;21.26;42.57;100986.56;5130737;27;20035;-30
2022/06/01 03:37:45;;;;;;;;;;;;;;;21.27;42.50;100995.69;5147783;27;20070;-30
2022/06/01 03:40:12;;;;;;;0.10;0.10;;;;;;;21.25;42.70;100984.91;5148947;27;20089;-29
2022/06/01 03:42:38;;;;;;;0.10;0.10;;;;;;;21.26;42.65;100992.09;5139846;27;20071;-31
2022/06/01 03:47:51;;;;;;;0.10;0.10;;;;;;;21.25;42.66;100997.94;5118346;27;20442;-30
2022/06/01 03:50:17;;;;;;;0.10;0.10;;;;;;;21.26;42.56;101005.13;5137806;27;20123;-31
2022/06/01 03:52:45;;;;;;;0.10;0.10;;;;;;;21.24;42.40;101005.44;5138001;27;20068;-31
2022/06/01 03:55:12;;;;;;;0.10;0.10;;;;;;;21.24;42.45;100996.28;5114971;27;20088;-31
2022/06/01 03:57:38;;;;;;;0.10;0.10;;;;;;;21.24;42.62;100999.03;5114420;27;20100;-30
2022/06/01 04:00:05;;;;;;;0.10;0.10;;;;;;;21.25;42.78;100996.00;5139018;27;20047;-32
2022/06/01 04:02:31;;;;;;;0.10;0.10;;;;;;;21.24;42.81;100996.28;5136188;27;20074;-31
2022/06/01 04:04:58;;;;;;;0.10;0.10;;;;;;;21.23;42.67;100992.69;5141741;27;20074;-31
2022/06/01 04:07:25;;;;;;;0.10;0.10;;;;;;;21.24;42.57;101002.66;5137299;27;20082;-33
2022/06/01 04:09:51;;;;;;;0.10;0.10;;;;;;;21.25;42.67;101003.47;5135548;27;20086;-30
2022/06/01 04:12:16;;;;;;;0.10;0.10;;;;;;;21.25;42.53;101011.78;5133649;27;20047;-30
2022/06/01 04:14:42;;;;;;;0.10;0.10;;;;;;;21.25;42.61;101006.25;5116625;27;20043;-31
2022/06/01 04:17:08;;;;;;;0.10;0.10;;;;;;;21.24;42.79;101010.13;5132649;27;20375;-32
2022/06/01 04:19:33;;;;;;;0.20;0.20;;;;;;;21.24;42.56;101012.88;5118837;27;20047;-30
2022/06/01 04:21:59;;;;;;;0.10;0.10;;;;;;;21.23;42.55;101016.78;5136075;27;20388;-30
2022/06/01 04:24:28;;;;;;;0.10;0.10;;;;;;;21.23;42.75;101016.78;5117909;27;20505;-32
2022/06/01 04:26:54;;;;;;;0.20;0.20;;;;;;;21.23;42.71;101008.47;5135173;27;20141;-31
2022/06/01 04:29:19;;;;;;;0.10;0.10;;;;;;;21.23;42.62;101022.31;5132528;27;20062;-32
2022/06/01 04:31:46;;;;;;;0.10;0.10;;;;;;;21.23;42.80;101019.56;5138349;27;20397;-31
2022/06/01 04:34:12;;;;;;;0.10;0.10;;;;;;;21.22;42.87;101024.28;5139857;27;20505;-31
2022/06/01 04:36:38;;;;;;;0.10;0.10;;;;;;;21.22;42.76;101027.03;5137962;27;20078;-32
2022/06/01 04:39:04;;;;;;;0.10;0.10;;;;;;;21.22;42.76;101018.72;5139519;27;20397;-30
2022/06/01 04:41:31;;;;;;;0.10;0.10;;;;;;;21.22;42.50;101015.97;5136776;27;20501;-34
2022/06/01 04:43:56;;;;;;;0.10;0.10;;;;;;;21.21;42.73;101017.09;5133213;27;20099;-31
2022/06/01 04:46:22;;;;;;;0.10;0.10;;;;;;;21.20;42.54;101014.59;5135223;27;20466;-32
2022/06/01 04:48:48;;;;;;;0.10;0.10;;;;;;;21.21;42.74;101019.84;5134091;27;20043;-34
2022/06/01 04:51:14;;;;;;;0.10;0.10;;;;;;;21.22;42.73;101015.13;5134726;27;20067;-33
2022/06/01 04:53:42;;;;;;;0.10;0.10;;;;;;;21.20;42.66;101015.44;5133778;27;20410;-34
2022/06/01 04:56:10;;;;;;;0.10;0.10;;;;;;;21.22;42.73;101020.69;5132381;27;20130;-36
2022/06/01 04:58:37;;;;;;;0.10;0.10;;;;;;;21.20;42.59;101017.34;5130751;27;20078;-35
2022/06/01 05:01:04;;;;;;;0.10;0.10;;;;;;;21.21;42.83;101021.81;5128933;27;20047;-35
2022/06/01 05:03:30;;;;;;;0.17;0.17;;;;;;;21.19;42.55;101019.31;5126754;27;20074;-36
2022/06/01 05:05:56;;;;;;;0.10;0.10;;;;;;;21.21;42.56;101021.81;5130856;27;20035;-33
2022/06/01 05:08:22;;;;;;;0.10;0.10;;;;;;;21.19;42.67;101019.31;5132819;27;20103;-33
2022/06/01 05:10:47;;;;;;;0.13;0.13;;;;;;;21.19;42.71;101019.31;5137436;27;20038;-33
2022/06/01 05:13:17;;;;;;;0.10;0.10;;;;;;;21.19;42.67;101016.53;5133331;27;20046;-33
2022/06/01 05:15:53;;;;;;;0.10;0.10;;;;;;;21.19;42.55;101015.72;5131980;27;20087;-33
2022/06/01 05:18:18;;;;;;;0.10;0.10;;;;;;;21.19;42.53;101018.47;5135348;27;20406;-32
2022/06/01 05:20:44;;;;;;;0.10;0.10;;;;;;;21.18;42.47;101011.28;5136370;27;20473;-33
2022/06/01 05:23:10;;;;;;;0.10;0.10;;;;;;;20.91;41.67;101012.66;5134466;27;20101;-35
2022/06/01 05:25:40;;;;;;;0.10;0.10;;;;;;;21.05;41.78;101013.63;5136652;27;20051;-33
2022/06/01 05:28:06;;;;;;;0.10;0.10;;;;;;;21.13;41.96;101012.19;5125111;27;20518;-35
2022/06/01 05:30:31;;;;;;;0.10;0.10;;;;;;;21.15;41.99;101021.00;5128379;27;20435;-33
2022/06/01 05:32:57;;;;;;;0.10;0.10;;;;;;;21.18;42.13;101016.84;5127011;27;20103;-32
2022/06/01 05:35:23;;;;;;;0.10;0.10;;;;;;;21.18;42.08;101014.88;5123616;27;20375;-33
2022/06/01 05:37:49;;;;;;;0.13;0.13;;;;;;;21.20;42.16;101014.59;5124162;27;20042;-33
2022/06/01 05:40:14;;;;;;;0.10;0.10;;;;;;;21.21;42.13;101013.50;5110106;27;20039;-33
2022/06/01 05:42:40;;;;;;;0.10;0.10;;;;;;;21.21;41.87;101016.25;5120990;27;20035;-35
2022/06/01 05:45:06;;;;;;;0.10;0.10;;;;;;;21.22;42.11;101023.44;5124697;27;20416;-33
2022/06/01 05:47:33;;;;;;;0.10;0.10;;;;;;;21.23;42.21;101017.59;5115013;27;20577;-34
2022/06/01 05:49:59;;;;;;;0.10;0.10;;;;;;;21.22;42.09;101021.50;5111628;27;20116;-33
2022/06/01 05:52:25;;;;;;;0.10;0.10;;;;;;;21.24;41.98;101022.06;5117262;27;20473;-33
2022/06/01 05:54:50;;;;;;;0.10;0.10;;;;;;;21.25;42.12;101028.41;5115258;27;20396;-35
2022/06/01 05:57:16;;;;;;;0.10;0.10;;;;;;;21.25;42.15;101028.41;5113957;27;20167;-32
2022/06/01 05:59:42;;;;;;;0.10;0.10;;;;;;;21.26;42.07;101033.66;5107688;27;20554;-35
2022/06/01 06:02:08;;;;;;;0.10;0.10;;;;;;;21.25;42.16;101034.78;5110271;27;20065;-33
2022/06/01 06:04:34;;;;;;;0.10;0.10;;;;;;;21.27;42.10;101040.00;5092633;27;20134;-33
2022/06/01 06:06:59;;;;;;;0.10;0.10;;;;;;;21.28;42.21;101036.13;5116280;27;20039;-32
2022/06/01 06:09:26;;;;;;;0.10;0.10;;;;;;;21.29;42.27;101044.16;5101705;28;20115;-33
2022/06/01 06:11:52;;;;;;;0.47;0.47;;;;;;;21.30;42.25;101044.97;5121879;27;20549;-33
2022/06/01 06:14:18;;;;;;;0.13;0.13;;;;;;;21.30;42.25;101045.78;5097085;27;20433;-33
2022/06/01 06:16:45;;;;;;;0.10;0.10;;;;;;;21.32;42.11;101045.53;5120055;27;20169;-35
2022/06/01 06:19:12;;;;;;;0.10;0.10;;;;;;;21.31;42.16;101032.75;5115414;27;20132;-33
2022/06/01 06:21:38;;;;;;;0.10;0.10;;;;;;;21.33;42.08;101041.66;5122740;27;20684;-34
2022/06/01 06:24:08;;;;;;;0.10;0.10;;;;;;;21.33;42.07;101047.19;5119221;27;20409;-34
2022/06/01 06:26:34;;;;;;;0.10;0.10;;;;;;;21.34;42.13;101042.47;5118762;27;20759;-33
2022/06/01 06:29:02;;;;;;;0.10;0.10;;;;;;;21.19;42.63;101051.72;5103623;27;20512;-31
2022/06/01 06:31:27;;;;;;;0.10;0.10;;;;;;;21.20;42.64;101047.81;5121275;27;20134;-33
2022/06/01 06:33:54;;;;;;;0.10;0.10;;;;;;;21.32;42.32;101042.75;5100319;27;20073;-33
2022/06/01 06:36:20;;;;;;;0.10;0.10;;;;;;;21.35;42.18;101055.22;5117353;27;20122;-33
2022/06/01 06:38:46;;;;;;;0.10;0.10;;;;;;;21.37;41.98;101050.19;5118260;27;20042;-32
2022/06/01 06:41:12;;;;;;;0.10;0.10;;;;;;;21.39;42.15;101067.34;5118483;27;20067;-33
2022/06/01 06:43:38;;;;;;;0.10;0.10;;;;;;;21.38;42.24;101066.53;5093306;27;20053;-33
2022/06/01 06:46:07;;;;;;;0.10;0.10;;;;;;;21.40;41.97;101069.81;5116423;27;20120;-34
2022/06/01 06:48:33;;;;;;;0.10;0.10;;;;;;;21.41;42.11;101060.38;5111612;27;20403;-36
2022/06/01 06:50:59;;;;;;;0.10;0.10;;;;;;;21.42;42.04;101047.38;5113625;27;20040;-33
2022/06/01 06:53:25;;;;;;;0.15;0.15;;;;;;;21.43;42.17;101058.16;5114535;27;20051;-34
2022/06/01 06:55:50;;;;;;;0.10;0.10;;;;;;;21.44;42.11;101051.50;5121597;27;20039;-32
2022/06/01 06:58:16;;;;;;;0.10;0.10;;;;;;;21.43;42.07;101047.09;5119893;27;20705;-34
2022/06/01 07:00:42;;;;;;;0.10;0.10;;;;;;;21.45;42.07;101044.81;5103046;27;20043;-33
2022/06/01 07:03:07;;;;;;;0.10;0.10;;;;;;;21.46;42.15;101045.66;5087997;27;20497;-33
2022/06/01 07:06:12;;;;;;;0.13;0.13;;;;;;;21.47;41.96;101050.09;5109586;27;20043;-35
2022/06/01 07:08:19;;;;;;;0.10;0.10;;;;;;;21.48;42.06;101049.78;5106083;27;20185;-33
2022/06/01 07:10:45;;;;;;;0.10;0.10;;;;;;;21.49;42.13;101059.75;5117667;27;20055;-33
2022/06/01 07:13:11;;;;;;;0.10;0.10;;;;;;;21.50;41.99;101063.34;5121090;27;20130;-34
2022/06/01 07:15:37;;;;;;;0.10;0.10;;;;;;;21.50;42.10;101057.81;5122654;27;20095;-34
2022/06/01 07:18:04;;;;;;;0.10;0.10;;;;;;;21.51;42.02;101057.53;5099355;27;20078;-33
2022/06/01 07:20:30;;;;;;;0.10;0.10;;;;;;;21.51;42.02;101065.84;5118998;27;20129;-34
2022/06/01 07:22:56;;;;;;;0.10;0.10;;;;;;;21.52;42.01;101063.91;5119287;27;20123;-33
2022/06/01 07:25:23;;;;;;;0.10;0.10;;;;;;;21.52;42.13;101066.66;5117137;27;20079;-33
2022/06/01 07:27:49;;;;;;;0.10;0.10;;;;;;;21.54;41.92;101062.50;5120245;27;20372;-34
2022/06/01 07:30:15;;;;;;;0.10;0.10;;;;;;;21.31;42.36;101074.31;5123895;27;20165;-47
2022/06/01 07:32:45;;;;;;;0.10;0.10;;;;;;;21.07;42.91;101063.19;5122271;27;20071;-31
2022/06/01 07:35:11;;;;;;;0.10;0.10;;;;;;;21.10;43.05;101070.09;5119063;27;20134;-34
2022/06/01 07:43:10;;;;;;;0.10;0.10;;;;;;;21.24;43.24;101065.50;5094774;27;20096;-35
2022/06/01 07:45:38;;;;;;;0.10;0.10;;;;;;;21.47;42.58;101072.25;5104575;27;20047;-33
2022/06/01 07:48:05;;;;;;;;;;;;;;;21.58;42.43;101070.19;5113282;27;20068;-35
2022/06/01 07:50:51;;;;;;;0.10;0.10;;;;;;;21.61;42.49;101080.69;5097504;27;19927;-36
2022/06/01 07:53:17;;;;;;;0.10;0.10;;;;;;;21.65;42.23;101079.00;5123134;27;20068;-37
2022/06/01 07:55:42;;;;;;;0.10;0.10;;;;;;;21.67;42.27;101079.50;5119340;27;20043;-35
2022/06/01 07:58:09;;;;;;;0.10;0.10;;;;;;;21.68;42.28;101072.88;5110056;27;20055;-39
2022/06/01 08:00:35;;;;;;;0.10;0.10;;;;;;;21.69;42.18;101080.88;5117800;27;20129;-37
2022/06/01 08:03:00;;;;;;;0.10;0.10;;;;;;;21.70;42.16;101082.53;5120346;27;20074;-35
2022/06/01 08:05:26;;;;;;;0.10;0.10;;;;;;;21.71;42.17;101086.13;5120409;27;20067;-36
2022/06/01 08:07:52;;;;;;;0.10;0.10;;;;;;;21.71;42.10;101086.94;5115672;27;20055;-36
2022/06/01 08:10:19;;;;;;;0.10;0.10;;;;;;;21.72;42.12;101087.81;5115215;27;20046;-36
2022/06/01 08:13:17;;;;;;;0.10;0.10;;;;;;;21.73;42.15;101081.94;5103111;27;20375;-38
2022/06/01 08:15:32;;;;;;;0.10;0.10;;;;;;;21.74;41.90;101093.88;5102122;28;20080;-39
2022/06/01 08:17:58;;;;;;;0.10;0.10;;;;;;;21.74;42.05;101088.31;5093343;27;20051;-38
2022/06/01 08:20:25;;;;;;;0.10;0.10;;;;;;;21.74;42.11;101094.69;5116866;27;20061;-36
2022/06/01 08:22:51;;;;;;;0.10;0.10;;;;;;;21.75;42.09;101096.31;5097243;27;20489;-35
2022/06/01 08:25:19;;;;;;;0.10;0.10;;;;;;;21.76;42.02;101088.84;5117324;27;20078;-38
2022/06/01 08:27:46;;;;;;;0.10;0.10;;;;;;;21.76;42.09;101092.47;5120470;27;20082;-38
2022/06/01 08:30:13;;;;;;;0.10;0.10;;;;;;;21.77;42.13;101096.88;5113141;27;20066;-37
2022/06/01 08:32:39;;;;;;;0.10;0.10;;;;;;;21.78;42.07;101101.28;5113516;27;20194;-35
2022/06/01 08:35:06;;;;;;;0.25;0.25;;;;;;;21.78;42.05;101100.47;5114261;27;20075;-34
2022/06/01 08:37:32;;;;;;;0.10;0.10;;;;;;;21.78;42.16;101103.25;5117682;27;20090;-38
2022/06/01 08:39:58;;;;;;;0.10;0.10;;;;;;;21.79;41.93;101102.94;5111243;27;20291;-34
2022/06/01 08:42:24;;;;;;;0.10;0.10;;;;;;;21.80;41.92;101101.00;5107771;27;20051;-39
2022/06/01 08:44:51;;;;;;;0.10;0.10;;;;;;;21.81;41.87;101101.84;5117733;27;20106;-38
2022/06/01 08:47:36;;;;;;;0.10;0.10;;;;;;;21.82;41.98;101106.25;5115941;27;20561;-39
2022/06/01 08:50:06;;;;;;;0.10;0.10;;;;;;;21.81;41.93;101094.34;5117266;27;20086;-36
2022/06/01 08:52:31;;;;;;;0.10;0.10;;;;;;;21.57;42.39;101099.03;5106654;27;20146;-37
2022/06/01 08:54:57;;;;;;;0.10;0.10;;;;;;;21.70;42.42;101101.13;5123821;27;20047;-39
2022/06/01 08:57:28;;;;;;;0.10;0.10;;;;;;;21.79;42.15;101093.81;5118637;27;20047;-38
2022/06/01 09:00:10;;;;;;;0.10;0.10;;;;;;;21.80;42.02;101098.22;5123146;27;20072;-41
2022/06/01 09:03:13;;;;;;;0.10;0.10;;;;;;;21.83;42.11;101105.13;5112511;27;20067;-37
2022/06/01 09:05:44;;;;;;;0.10;0.10;;;;;;;21.83;42.10;101107.91;5104237;27;20565;-36
2022/06/01 09:08:41;;;;;;;0.10;0.10;;;;;;;21.85;42.03;101102.88;5112532;27;20145;-34
2022/06/01 09:11:11;;;;;;;0.10;0.10;;;;;;;21.85;42.03;101103.72;5100236;27;20143;-34
2022/06/01 09:14:04;;;;;;;0.10;0.10;;;;;;;21.86;41.89;101110.91;5119646;27;20078;-38
2022/06/01 09:16:33;;;;;;;0.10;0.10;;;;;;;21.79;42.01;101105.72;5120321;27;20164;-39
2022/06/01 09:18:59;;;;;;;0.10;0.10;;;;;;;21.87;41.92;101104.25;5111677;27;20054;-33
2022/06/01 09:24:24;;;;;;;0.10;0.10;;;;;;;21.90;42.01;101108.38;5119473;27;20180;-37
2022/06/01 09:26:55;;;;;;;0.10;0.10;;;;;;;21.91;41.95;101098.94;5101094;27;20528;-35
2022/06/01 09:29:24;;;;;;;0.10;0.10;;;;;;;21.91;41.84;101093.41;5096960;27;20135;-34
2022/06/01 09:31:55;;;;;;;0.10;0.10;;;;;;;21.91;41.71;101098.94;5119872;27;20075;-37
2022/06/01 09:34:30;;;;;;;0.10;0.10;;;;;;;21.92;41.85;101092.25;5119052;27;20090;-33
2022/06/01 09:37:13;;;;;;;0.10;0.10;;;;;;;21.91;41.76;101102.53;5124330;27;20125;-34
2022/06/01 09:39:51;;;;;;;0.10;0.10;;;;;;;21.93;41.82;101097.50;5120003;27;20062;-35
2022/06/01 09:42:25;;;;;;;0.10;0.10;;;;;;;21.93;41.71;101091.13;5115090;27;20565;-38
2022/06/01 09:44:54;;;;;;;0.20;0.20;;;;;;;21.94;41.90;101095.59;5117581;27;20150;-37
2022/06/01 09:47:28;;;;;;;0.10;0.10;;;;;;;21.94;41.89;101081.72;5116122;27;20169;-38
2022/06/01 09:49:56;;;;;;;0.10;0.10;;;;;;;21.95;41.88;101075.06;5119064;27;20186;-35
2022/06/01 09:52:31;;;;;;;;;;;;;;;21.95;41.88;101086.97;5113829;27;20396;-37
2022/06/01 09:55:07;;;;;;;0.10;0.10;;;;;;;21.96;41.76;101088.59;5117531;27;20018;-37
2022/06/01 09:57:37;;;;;;;0.10;0.10;;;;;;;21.96;41.91;101088.59;5094653;27;20054;-33
2022/06/01 10:09:13;;;;;;;0.10;0.10;;;;;;;21.98;41.89;101083.59;5172907;27;20657;-38
2022/06/01 10:11:42;;;;;;;0.10;0.10;;;;;;;21.98;41.83;101082.78;5156305;27;20469;-36
2022/06/01 10:17:09;;;;;;;0.10;0.10;;;;;;;22.00;41.81;101086.06;5158244;27;20249;-37
2022/06/01 10:19:38;;;;;;;0.10;0.10;;;;;;;21.99;41.73;101084.44;5122457;27;20162;-34
2022/06/01 10:22:18;;;;;;;0.10;0.10;;;;;;;21.99;41.73;101089.97;5141808;27;20466;-36
2022/06/01 10:25:24;;;;;;;0.10;0.10;;;;;;;22.00;41.64;101080.53;5148406;27;20073;-38
2022/06/01 10:27:59;;;;;;;0.10;0.10;;;;;;;21.99;41.71;101089.97;5121743;27;20200;-38
2022/06/01 10:30:43;;;;;;;0.10;0.10;;;;;;;21.99;41.67;101093.56;5143795;27;20050;-39
2022/06/01 10:33:16;;;;;;;0.10;0.10;;;;;;;21.83;41.68;101089.31;5137435;27;20473;-35
2022/06/01 10:35:45;;;;;;;0.10;0.10;;;;;;;21.72;42.01;101094.16;5136837;27;20613;-37
2022/06/01 10:38:41;;;;;;;0.10;0.10;;;;;;;21.76;42.10;101098.00;5134500;27;20557;-39
2022/06/01 10:41:14;;;;;;;0.10;0.10;;;;;;;21.95;41.84;101097.22;5135087;27;20141;-38
2022/06/01 10:43:50;;;;;;;0.10;0.10;;;;;;;21.99;41.73;101096.34;5135225;27;20123;-37
2022/06/01 10:46:30;;;;;;;0.10;0.10;;;;;;;22.00;41.64;101095.22;5128996;27;20146;-35
2022/06/01 10:49:26;;;;;;;0.10;0.10;;;;;;;22.03;41.60;101089.09;5126991;27;20122;-37
2022/06/01 10:52:00;;;;;;;0.10;0.10;;;;;;;22.03;41.62;101085.50;5117739;27;20050;-37
2022/06/01 10:54:42;;;;;;;0.10;0.10;;;;;;;22.04;41.70;101089.91;5119809;27;20616;-38
2022/06/01 10:57:10;;;;;;;0.10;0.10;;;;;;;22.17;41.88;101088.41;5131732;27;20094;-48
2022/06/01 10:59:37;;;;;;;0.10;0.10;;;;;;;22.14;42.02;101086.19;5138514;27;20598;-37
2022/06/01 11:02:13;;;;;;;0.10;0.10;;;;;;;22.24;42.36;101094.41;5137263;27;20133;-36
2022/06/01 11:05:13;;;;;;;0.10;0.10;;;;;;;22.25;42.33;101085.78;5132442;27;20054;-41
2022/06/01 11:08:10;;;;;;;0.10;0.10;;;;;;;22.23;42.24;101085.25;5116134;27;20066;-35
2022/06/01 11:11:03;;;;;;;0.10;0.10;;;;;;;22.23;42.14;101090.78;5110961;27;20143;-35
2022/06/01 11:13:39;;;;;;;0.10;0.10;;;;;;;22.21;42.14;101087.50;5120008;27;20162;-34
2022/06/01 11:16:28;;;;;;;0.10;0.10;;;;;;;22.22;42.29;101088.31;5136401;27;20513;-36
2022/06/01 11:19:25;;;;;;;0.10;0.10;;;;;;;22.08;41.58;101087.38;5117949;27;20050;-35
2022/06/01 11:24:45;;;;;;;0.10;0.10;;;;;;;22.18;41.61;101095.59;5110374;27;20223;-34
2022/06/01 11:27:51;;;;;;;0.10;0.10;;;;;;;22.10;41.47;101087.88;5107363;28;20466;-38
2022/06/01 11:30:20;;;;;;;0.10;0.10;;;;;;;22.15;41.30;101091.47;5100209;28;20525;-38
2022/06/01 11:33:02;;;;;;;0.10;0.10;;;;;;;22.23;41.45;101096.34;5097131;27;20187;-35
2022/06/01 11:35:45;;;;;;;0.10;0.10;;;;;;;22.21;41.32;101097.78;5089136;28;20090;-34
2022/06/01 11:38:18;;;;;;;0.10;0.10;;;;;;;22.26;41.17;101076.31;5105584;27;20164;-36
2022/06/01 11:40:50;;;;;;;0.10;0.10;;;;;;;22.26;41.28;101086.59;5111698;27;20450;-38
2022/06/01 11:43:28;;;;;;;0.10;0.10;;;;;;;22.25;41.30;101088.56;5091377;28;20171;-36
2022/06/01 11:46:00;;;;;;;0.10;0.10;;;;;;;22.25;41.33;101094.09;5116445;27;20040;-38
2022/06/01 11:48:31;;;;;;;0.10;0.10;;;;;;;22.26;41.31;101090.19;5113122;27;20054;-38
2022/06/01 11:51:16;;;;;;;0.10;0.10;;;;;;;22.27;41.30;101091.03;5115016;27;20079;-35
2022/06/01 11:59:15;;;;;;;0.10;0.10;;;;;;;22.28;41.35;101087.97;5165671;27;20188;-35
2022/06/01 12:04:23;;;;;;;0.10;0.10;;;;;;;22.29;41.20;101086.84;5150541;27;20651;-32
2022/06/01 12:07:10;;;;;;;0.10;0.10;;;;;;;22.32;41.08;101087.34;5146334;27;20070;-37
2022/06/01 12:09:58;;;;;;;0.10;0.10;;;;;;;22.31;41.07;101085.72;5136380;27;20081;-36
2022/06/01 12:15:29;;;;;;;0.10;0.10;;;;;;;22.31;41.28;101092.06;5170299;27;20219;-36
2022/06/01 12:18:19;;;;;;;0.10;0.10;;;;;;;22.32;41.24;101101.22;5141946;27;20523;-34
2022/06/01 12:20:48;;;;;;;0.10;0.10;;;;;;;22.33;41.25;101105.66;5132509;27;20155;-38
2022/06/01 12:28:51;;;;;;;0.10;0.10;;;;;;;22.33;41.20;101111.22;5155681;27;20209;-36
2022/06/01 12:31:20;;;;;;;0.10;0.10;;;;;;;22.34;41.30;101107.31;5138426;27;20088;-35